LICD Airport Information

Runway Information
Runway 08 Length 5906 ft width 148 ft
Elevation 48 ft Threshold 0 ft Heading 81
Runway 26 Length 5906 ft Width 148 ft
Elevation 70 ft Threshold 0 ft Heading 261
Airport Frequencies
Type AFIS Name INFO Frequency 122.1 MHZ
Airport Navaids
Type VOR-DME Name Lampedusa Frequency 108600 KHZ
Type NDB Name Lampedusa Frequency 373 KHZ
Airport Weather Information & NOTAM
ADDS - METARS form results

(0935 UTC 24 August 2019)
Data provider http://aviationweather.gov/metar/data/
 
METAR text: LICD 240850Z 03005KT CAVOK 28/22 Q1017
Conditions at: LICD (LAMPEDUSA ISLAND, IT) observed 0850 UTC 24 August 2019
Temperature: 28.0°C (82°F)
Dewpoint: 22.0°C (72°F) [RH = 70%]
Pressure (altimeter): 30.03 inches Hg (1017.0 mb)
Winds: from the NNE (30 degrees) at 6 MPH (5 knots; 2.6 m/s)
Visibility: 6 or more miles (10+ km)
Ceiling: ceiling and visibility are OK
Clouds: unknown
Weather: no significant weather observed at this time

Forecast for: LICD (LAMPEDUSA ISLAND, IT)
Text: TAF LICD 240500Z 2406/2506 VRB05KT CAVOK
Forecast period: 0600 UTC 24 August 2019 to 0600 UTC 25 August 2019
Forecast type: FROM: standard forecast or significant change
Winds: variable direction winds at 6 MPH (5 knots; 2.6 m/s)
Visibility: 6 or more miles 10+ km)
Ceiling: unknown
Clouds: missing
Weather: NSW  (no significant weather)